Time;durP1;ratioP1;P1;durP2;ratioP2;P2;SDS_P1;SDS_P2;PMS_P1;PMS_P2;Temp;Humidity;BMP_temperature;BMP_pressure;BME280_temperature;BME280_humidity;BME280_pressure;Samples;Min_cycle;Max_cycle;Signal;HPM_P1;HPM_P2
2022/09/21 00:01:25;;;;;;;7.03;2.10;;;13.70;92.10;;;;;;5009198;28;20057;-82
2022/09/21 00:03:53;;;;;;;5.13;2.20;;;13.60;92.10;;;;;;5018315;28;20026;-82
2022/09/21 00:06:21;;;;;;;4.38;1.80;;;13.60;92.20;;;;;;5036204;28;20527;-82
2022/09/21 00:08:47;;;;;;;6.25;1.80;;;13.60;92.30;;;;;;5018496;28;20018;-82
2022/09/21 00:11:20;;;;;;;3.53;1.77;;;13.50;92.40;;;;;;5017874;28;20040;-82
2022/09/21 00:13:50;;;;;;;5.05;1.92;;;13.50;92.40;;;;;;5018257;28;20041;-83
2022/09/21 00:16:16;;;;;;;5.63;1.70;;;13.50;92.40;;;;;;5017489;28;20057;-82
2022/09/21 00:18:44;;;;;;;4.18;1.88;;;13.50;92.50;;;;;;4985292;28;20048;-85
2022/09/21 00:21:17;;;;;;;3.97;2.15;;;13.50;92.50;;;;;;4987917;28;20429;-82
2022/09/21 00:23:45;;;;;;;4.95;2.25;;;13.50;92.50;;;;;;5037900;28;20029;-86
2022/09/21 00:26:31;;;;;;;5.07;1.90;;;13.40;92.50;;;;;;5037684;28;20029;-81
2022/09/21 00:28:59;;;;;;;3.50;1.83;;;13.40;92.60;;;;;;5037750;28;20057;-81
2022/09/21 00:31:32;;;;;;;3.22;1.75;;;13.40;92.70;;;;;;5035093;28;20551;-82
2022/09/21 00:33:59;;;;;;;4.28;1.73;;;13.40;92.70;;;;;;5018085;28;20477;-81
2022/09/21 00:36:26;;;;;;;3.63;1.60;;;13.40;92.70;;;;;;5001736;28;20037;-83
2022/09/21 00:38:55;;;;;;;4.38;1.70;;;13.40;92.60;;;;;;5017581;28;20033;-82
2022/09/21 00:41:22;;;;;;;4.43;2.10;;;13.40;92.50;;;;;;5018139;28;20027;-83
2022/09/21 00:44:27;;;;;;;3.40;1.63;;;13.40;92.50;;;;;;5032929;28;20029;-84
2022/09/21 00:46:58;;;;;;;4.75;1.80;;;13.40;92.50;;;;;;5037483;28;20075;-82
2022/09/21 00:49:27;;;;;;;3.20;2.10;;;13.30;92.50;;;;;;5056461;28;20056;-82
2022/09/21 00:51:54;;;;;;;2.67;1.88;;;13.30;92.50;;;;;;5020618;28;20048;-83
2022/09/21 00:54:29;;;;;;;2.45;1.70;;;13.30;92.50;;;;;;5000880;28;20032;-82
2022/09/21 00:57:00;;;;;;;4.20;1.75;;;13.30;92.50;;;;;;5001180;28;20500;-82
2022/09/21 00:59:31;;;;;;;2.50;1.55;;;13.30;92.50;;;;;;5018246;28;20021;-83
2022/09/21 01:01:59;;;;;;;4.27;1.73;;;13.30;92.50;;;;;;5000484;28;20030;-82
2022/09/21 01:04:27;;;;;;;4.55;1.65;;;13.30;92.40;;;;;;5002859;28;20298;-82
2022/09/21 01:06:55;;;;;;;3.10;1.50;;;13.30;92.40;;;;;;5000633;28;20050;-81
2022/09/21 01:09:22;;;;;;;2.08;1.35;;;13.30;92.30;;;;;;5017575;28;20057;-82
2022/09/21 01:12:01;;;;;;;3.78;1.77;;;13.20;92.30;;;;;;5018367;28;20044;-82
2022/09/21 01:15:08;;;;;;;2.92;1.48;;;13.20;92.30;;;;;;5051821;28;20072;-82
2022/09/21 01:17:52;;;;;;;4.25;1.52;;;13.10;92.30;;;;;;4962399;28;20024;-82
2022/09/21 01:20:55;;;;;;;2.60;1.50;;;13.10;92.30;;;;;;4959944;28;20023;-81
2022/09/21 01:23:36;;;;;;;4.47;1.75;;;13.10;92.30;;;;;;5030359;28;20037;-81
2022/09/21 01:26:53;;;;;;;3.88;1.67;;;13.10;92.30;;;;;;5028414;28;20088;-82
2022/09/21 01:29:37;;;;;;;3.53;1.30;;;13.10;92.40;;;;;;5012175;28;20041;-83
2022/09/21 01:32:26;;;;;;;7.20;1.60;;;13.00;92.40;;;;;;5031080;28;20032;-83
2022/09/21 01:34:53;;;;;;;3.78;1.70;;;13.00;92.40;;;;;;5036549;28;20033;-82
2022/09/21 01:37:45;;;;;;;3.13;1.48;;;12.90;92.30;;;;;;5036017;28;20033;-82
2022/09/21 01:40:20;;;;;;;3.28;1.25;;;12.90;92.40;;;;;;5036998;28;20029;-84
2022/09/21 01:42:50;;;;;;;1.83;1.10;;;12.90;92.40;;;;;;5036003;28;20457;-83
2022/09/21 01:45:19;;;;;;;4.28;1.60;;;12.90;92.40;;;;;;5020450;28;20088;-83
2022/09/21 01:47:49;;;;;;;2.33;1.52;;;12.90;92.40;;;;;;5038082;28;20128;-83
2022/09/21 01:50:44;;;;;;;2.20;1.30;;;12.90;92.40;;;;;;5056337;28;20048;-82
2022/09/21 01:53:51;;;;;;;3.28;1.35;;;12.80;92.30;;;;;;5039325;28;20036;-82
2022/09/21 01:56:35;;;;;;;4.97;1.90;;;12.80;92.30;;;;;;5036448;28;20036;-83
2022/09/21 01:59:12;;;;;;;2.20;1.33;;;12.80;92.30;;;;;;5036362;28;20190;-82
2022/09/21 02:01:48;;;;;;;3.22;1.40;;;12.80;92.40;;;;;;5036509;28;20048;-82
2022/09/21 02:04:14;;;;;;;2.75;1.33;;;12.70;92.40;;;;;;5053817;28;20381;-80
2022/09/21 02:06:44;;;;;;;1.55;0.95;;;12.70;92.40;;;;;;5035564;28;20029;-83
2022/09/21 02:09:11;;;;;;;3.67;1.10;;;12.70;92.30;;;;;;5035329;28;20029;-81
2022/09/21 02:11:41;;;;;;;2.03;1.20;;;12.70;92.30;;;;;;5019196;28;20037;-83
2022/09/21 02:14:10;;;;;;;3.92;1.25;;;12.70;92.30;;;;;;5035547;28;20040;-82
2022/09/21 02:16:55;;;;;;;2.55;1.38;;;12.60;92.20;;;;;;5019096;28;20041;-82
2022/09/21 02:19:38;;;;;;;2.28;1.10;;;12.60;92.20;;;;;;5053173;28;20029;-82
2022/09/21 02:22:11;;;;;;;2.25;1.50;;;12.60;92.20;;;;;;5034778;28;20157;-83
2022/09/21 02:24:52;;;;;;;3.42;1.50;;;12.60;92.20;;;;;;5053120;28;20469;-81
2022/09/21 02:27:46;;;;;;;2.20;1.43;;;12.50;92.50;;;;;;5053178;28;20029;-84
2022/09/21 02:30:26;;;;;;;3.78;1.60;;;12.50;92.30;;;;;;5055228;28;20267;-82
2022/09/21 02:33:08;;;;;;;3.72;1.60;;;12.40;92.30;;;;;;5038790;28;20029;-82
2022/09/21 02:35:53;;;;;;;2.53;1.70;;;12.40;92.30;;;;;;5057879;28;20025;-82
2022/09/21 02:39:06;;;;;;;1.77;1.30;;;12.40;92.30;;;;;;5055337;28;20033;-82
2022/09/21 02:42:13;;;;;;;3.85;1.38;;;12.40;92.40;;;;;;5055205;28;20044;-82
2022/09/21 02:45:00;;;;;;;2.15;1.17;;;12.30;92.40;;;;;;5030645;28;20044;-81
2022/09/21 02:47:51;;;;;;;3.55;1.13;;;12.20;92.30;;;;;;5043781;28;20039;-82
2022/09/21 02:50:27;;;;;;;2.58;1.30;;;12.20;92.30;;;;;;5051996;28;20055;-82
2022/09/21 02:52:54;;;;;;;3.78;1.40;;;12.20;92.40;;;;;;5073192;28;20024;-81
2022/09/21 02:55:21;;;;;;;3.67;1.40;;;12.20;92.30;;;;;;5066576;28;20036;-82
2022/09/21 02:57:48;;;;;;;3.92;1.50;;;12.10;92.20;;;;;;5080585;28;20097;-82
2022/09/21 03:00:15;;;;;;;2.42;1.10;;;12.10;92.20;;;;;;5076996;28;20092;-82
2022/09/21 03:02:43;;;;;;;5.18;1.88;;;12.10;92.20;;;;;;5085635;28;20020;-82
2022/09/21 03:05:11;;;;;;;1.83;1.15;;;12.10;92.30;;;;;;5038155;28;20033;-82
2022/09/21 03:07:38;;;;;;;2.15;1.48;;;12.00;92.20;;;;;;5038204;28;20040;-82
2022/09/21 03:10:05;;;;;;;3.63;1.38;;;12.00;92.20;;;;;;5022702;28;20175;-84
2022/09/21 03:12:31;;;;;;;4.28;1.50;;;12.00;92.20;;;;;;5038567;28;20491;-82
2022/09/21 03:14:58;;;;;;;2.25;1.20;;;11.90;92.20;;;;;;5022435;28;20029;-83
2022/09/21 03:17:24;;;;;;;2.47;1.20;;;11.90;92.10;;;;;;5015921;28;20036;-82
2022/09/21 03:19:53;;;;;;;2.45;1.42;;;11.90;92.10;;;;;;5038583;28;20029;-82
2022/09/21 03:22:23;;;;;;;2.75;1.25;;;11.80;92.00;;;;;;5022292;28;20025;-82
2022/09/21 03:24:49;;;;;;;2.83;1.02;;;11.80;92.00;;;;;;5022336;28;20037;-81
2022/09/21 03:27:18;;;;;;;3.25;1.25;;;11.80;92.30;;;;;;5038567;28;20075;-81
2022/09/21 03:29:45;;;;;;;2.05;1.33;;;11.70;92.00;;;;;;5026859;28;20087;-82
2022/09/21 03:32:11;;;;;;;2.22;1.30;;;11.70;92.00;;;;;;5049309;28;20025;-82
2022/09/21 03:34:37;;;;;;;3.28;1.42;;;11.70;92.00;;;;;;5041357;28;20078;-83
2022/09/21 03:37:07;;;;;;;2.67;1.25;;;11.70;91.90;;;;;;5041163;28;20060;-82
2022/09/21 03:39:34;;;;;;;3.45;1.30;;;11.60;91.90;;;;;;5041790;28;20398;-81
2022/09/21 03:42:01;;;;;;;1.95;1.20;;;11.60;92.00;;;;;;5074332;28;20063;-82
2022/09/21 03:44:27;;;;;;;1.75;1.15;;;11.60;92.00;;;;;;5041794;28;20051;-82
2022/09/21 03:46:52;;;;;;;3.33;1.40;;;11.60;92.00;;;;;;5058262;28;20028;-82
2022/09/21 03:49:18;;;;;;;2.40;1.45;;;11.60;91.90;;;;;;5040678;28;20456;-82
2022/09/21 03:51:48;;;;;;;2.60;1.38;;;11.50;91.90;;;;;;5041720;28;20072;-81
2022/09/21 03:54:15;;;;;;;2.40;1.30;;;11.50;91.90;;;;;;5034963;28;20036;-83
2022/09/21 03:56:41;;;;;;;1.55;1.00;;;11.50;91.90;;;;;;5021050;28;20454;-81
2022/09/21 03:59:07;;;;;;;2.17;1.20;;;11.50;91.90;;;;;;5054263;28;20045;-82
2022/09/21 04:01:33;;;;;;;3.28;1.45;;;11.40;91.80;;;;;;5037584;28;20393;-82
2022/09/21 04:03:59;;;;;;;1.75;1.30;;;11.40;91.80;;;;;;5020561;28;20392;-81
2022/09/21 04:06:25;;;;;;;2.50;1.50;;;11.40;91.90;;;;;;5034880;28;20439;-81
2022/09/21 04:08:53;;;;;;;2.03;1.40;;;11.30;91.80;;;;;;5020916;28;20041;-82
2022/09/21 04:11:21;;;;;;;1.50;1.20;;;11.30;91.90;;;;;;5021168;28;20544;-82
2022/09/21 04:13:55;;;;;;;2.58;1.83;;;11.30;91.90;;;;;;5021065;28;20029;-82
2022/09/21 04:16:27;;;;;;;3.20;1.60;;;11.30;91.90;;;;;;5055488;28;20078;-82
2022/09/21 04:18:53;;;;;;;1.52;1.00;;;11.20;91.90;;;;;;5022621;28;20025;-82
2022/09/21 04:21:20;;;;;;;2.65;1.50;;;11.20;92.00;;;;;;5036804;28;20144;-82
2022/09/21 04:23:45;;;;;;;3.20;1.40;;;11.20;91.90;;;;;;5037316;28;20032;-82
2022/09/21 04:26:20;;;;;;;3.08;1.20;;;11.20;92.00;;;;;;5020613;28;20116;-83
2022/09/21 04:28:46;;;;;;;1.50;1.10;;;11.20;92.00;;;;;;5041370;28;20058;-85
2022/09/21 04:31:12;;;;;;;3.35;1.40;;;11.20;92.00;;;;;;5060661;28;20021;-86
2022/09/21 04:33:42;;;;;;;2.28;1.40;;;11.20;92.00;;;;;;5077995;28;20025;-80
2022/09/21 04:36:15;;;;;;;2.13;1.23;;;11.10;92.10;;;;;;5043794;28;20041;-80
2022/09/21 04:38:42;;;;;;;2.70;1.50;;;11.10;92.40;;;;;;5039830;28;20033;-81
2022/09/21 04:41:11;;;;;;;1.52;1.30;;;11.10;92.10;;;;;;5039470;28;20021;-82
2022/09/21 04:43:40;;;;;;;2.72;1.20;;;11.10;92.10;;;;;;5057066;28;20098;-81
2022/09/21 04:46:09;;;;;;;1.88;1.13;;;11.00;92.10;;;;;;5074501;28;20020;-81
2022/09/21 04:48:38;;;;;;;2.20;1.40;;;11.00;92.10;;;;;;5054441;28;20116;-82
2022/09/21 04:51:07;;;;;;;2.97;1.40;;;11.00;92.10;;;;;;5036154;28;20424;-82
2022/09/21 04:53:41;;;;;;;1.55;1.02;;;11.00;92.10;;;;;;5034150;28;20136;-84
2022/09/21 04:56:14;;;;;;;2.33;1.30;;;10.90;92.00;;;;;;5016398;28;20029;-82
2022/09/21 04:58:41;;;;;;;2.88;1.45;;;10.90;92.10;;;;;;5032900;28;20075;-83
2022/09/21 05:01:07;;;;;;;4.90;1.27;;;10.90;92.00;;;;;;5016425;28;20481;-82
2022/09/21 05:03:36;;;;;;;2.97;1.35;;;10.90;92.00;;;;;;5016404;28;20036;-82
2022/09/21 05:06:03;;;;;;;1.45;1.35;;;10.90;91.90;;;;;;5016344;28;20481;-82
2022/09/21 05:11:17;;;;;;;1.75;1.00;;;10.80;91.90;;;;;;5039353;28;20409;-82
2022/09/21 05:13:43;;;;;;;2.25;1.10;;;10.80;91.90;;;;;;5036882;28;20021;-83
2022/09/21 05:16:09;;;;;;;1.80;1.02;;;10.70;91.80;;;;;;5019875;28;20025;-82
2022/09/21 05:18:38;;;;;;;2.47;1.30;;;10.80;91.80;;;;;;5052453;28;20032;-82
2022/09/21 05:21:15;;;;;;;3.95;1.30;;;10.70;91.80;;;;;;5019095;28;20602;-83
2022/09/21 05:23:43;;;;;;;2.67;1.20;;;10.80;91.80;;;;;;5022805;28;20021;-82
2022/09/21 05:26:09;;;;;;;1.50;1.13;;;10.80;91.80;;;;;;5015866;28;20061;-83
2022/09/21 05:28:39;;;;;;;2.63;1.23;;;10.70;91.80;;;;;;4983611;28;20045;-84
2022/09/21 05:31:18;;;;;;;4.57;1.90;;;10.70;91.90;;;;;;5017532;28;20056;-83
2022/09/21 05:33:57;;;;;;;3.97;1.92;;;10.70;91.90;;;;;;5025122;28;20041;-83
2022/09/21 05:36:28;;;;;;;2.92;1.60;;;10.70;91.90;;;;;;5016248;28;20048;-84
2022/09/21 05:38:55;;;;;;;4.55;2.33;;;10.70;92.00;;;;;;5016429;28;20033;-83
2022/09/21 05:41:22;;;;;;;6.13;2.63;;;10.60;91.90;;;;;;4983907;28;20052;-84
2022/09/21 05:43:48;;;;;;;4.47;2.47;;;10.60;92.20;;;;;;4999279;28;20470;-84
2022/09/21 05:46:17;;;;;;;5.63;2.70;;;10.60;92.10;;;;;;5015855;28;20029;-82
2022/09/21 05:48:58;;;;;;;8.32;2.58;;;10.60;92.10;;;;;;5015566;28;20030;-81
2022/09/21 05:51:40;;;;;;;8.02;3.08;;;10.60;92.20;;;;;;5016081;28;20474;-82
2022/09/21 05:54:24;;;;;;;;;;;10.60;92.20;;;;;;5016288;28;20025;-82
2022/09/21 05:57:06;;;;;;;7.03;3.28;;;10.60;92.20;;;;;;5018453;28;20302;-83
2022/09/21 05:59:56;;;;;;;11.18;3.92;;;10.60;92.30;;;;;;5034311;28;20057;-83
2022/09/21 06:02:52;;;;;;;5.80;3.67;;;10.60;92.30;;;;;;5035351;28;20033;-84
2022/09/21 06:05:21;;;;;;;6.20;3.50;;;10.60;92.30;;;;;;5057361;28;20021;-82
2022/09/21 06:07:49;;;;;;;7.95;3.35;;;10.60;92.30;;;;;;5056842;28;20061;-81
2022/09/21 06:10:19;;;;;;;5.32;2.90;;;10.60;92.30;;;;;;5040673;28;20055;-83
2022/09/21 06:12:48;;;;;;;7.50;3.28;;;10.60;92.30;;;;;;5025662;28;20547;-82
2022/09/21 06:15:16;;;;;;;6.40;3.20;;;10.70;92.40;;;;;;5039995;28;20036;-83
2022/09/21 06:17:43;;;;;;;5.43;2.67;;;10.60;92.40;;;;;;5039058;28;20469;-82
2022/09/21 06:20:13;;;;;;;7.50;3.15;;;10.70;92.50;;;;;;5027417;28;20362;-83
2022/09/21 06:22:42;;;;;;;3.95;2.67;;;10.70;92.50;;;;;;4986723;28;20060;-84
2022/09/21 06:25:09;;;;;;;7.13;3.30;;;10.70;92.50;;;;;;5018991;28;20079;-83
2022/09/21 06:27:35;;;;;;;5.30;2.80;;;10.80;92.50;;;;;;5019378;28;20060;-83
2022/09/21 06:30:02;;;;;;;6.50;3.53;;;10.80;92.50;;;;;;5003413;28;20378;-83
2022/09/21 06:32:28;;;;;;;11.20;6.05;;;10.80;92.40;;;;;;5024748;28;20546;-82
2022/09/21 06:34:53;;;;;;;27.05;16.95;;;10.90;92.50;;;;;;5038926;28;20108;-83
2022/09/21 06:37:20;;;;;;;15.75;10.68;;;10.90;92.50;;;;;;5022379;28;20065;-81
2022/09/21 06:39:47;;;;;;;11.93;7.63;;;11.00;92.50;;;;;;5038858;28;20036;-82
2022/09/21 06:42:13;;;;;;;9.00;5.72;;;11.00;92.50;;;;;;5036564;28;20029;-82
2022/09/21 06:44:39;;;;;;;5.88;4.00;;;11.10;92.60;;;;;;5002399;28;20187;-82
2022/09/21 06:47:14;;;;;;;5.82;3.33;;;11.10;92.60;;;;;;4993990;28;20044;-84
2022/09/21 06:49:46;;;;;;;5.18;2.78;;;11.20;92.80;;;;;;5033116;28;20080;-83
2022/09/21 06:52:13;;;;;;;4.40;2.80;;;11.20;92.80;;;;;;5060531;28;20028;-83
2022/09/21 06:54:48;;;;;;;4.55;2.60;;;11.30;92.90;;;;;;5056372;28;20037;-85
2022/09/21 06:57:14;;;;;;;4.57;3.15;;;11.30;93.10;;;;;;5043554;28;20039;-82
2022/09/21 06:59:46;;;;;;;5.57;3.00;;;11.40;93.20;;;;;;5058615;28;20020;-81
2022/09/21 07:02:12;;;;;;;3.42;2.65;;;11.40;93.20;;;;;;5056739;28;20067;-83
2022/09/21 07:04:38;;;;;;;4.00;2.70;;;11.50;93.20;;;;;;5076162;28;20025;-83
2022/09/21 07:07:04;;;;;;;7.03;3.00;;;11.60;93.30;;;;;;5035558;28;20135;-81
2022/09/21 07:09:30;;;;;;;5.38;3.13;;;11.70;93.40;;;;;;5039100;28;20035;-84
2022/09/21 07:12:00;;;;;;;5.28;3.28;;;11.70;93.40;;;;;;5007124;28;20025;-82
2022/09/21 07:14:26;;;;;;;4.47;2.90;;;11.70;93.30;;;;;;5022934;28;20041;-81
2022/09/21 07:16:53;;;;;;;4.45;3.03;;;11.80;93.40;;;;;;5039089;28;20021;-83
2022/09/21 07:19:19;;;;;;;5.88;3.17;;;11.90;93.40;;;;;;5030955;28;20048;-82
2022/09/21 07:21:44;;;;;;;7.82;4.10;;;12.00;93.60;;;;;;5037969;28;20038;-83
2022/09/21 07:24:13;;;;;;;6.05;4.30;;;12.00;93.60;;;;;;5037590;28;20029;-82
2022/09/21 07:26:40;;;;;;;9.75;5.20;;;12.00;93.60;;;;;;5022496;28;20037;-83
2022/09/21 07:29:09;;;;;;;7.40;4.45;;;12.10;93.70;;;;;;5038196;28;20029;-84
2022/09/21 07:31:35;;;;;;;6.28;4.28;;;12.10;93.80;;;;;;5038316;28;20028;-83
2022/09/21 07:34:03;;;;;;;6.28;3.70;;;12.20;93.80;;;;;;5076121;28;20032;-83
2022/09/21 07:36:30;;;;;;;4.40;3.13;;;12.30;93.80;;;;;;5076781;28;20024;-82
2022/09/21 07:38:58;;;;;;;7.18;3.05;;;12.40;93.90;;;;;;5048526;28;20025;-83
2022/09/21 07:41:26;;;;;;;5.13;3.25;;;12.50;93.90;;;;;;5065672;28;20084;-83
2022/09/21 07:43:53;;;;;;;5.30;2.88;;;12.50;93.80;;;;;;5064303;28;20040;-80
2022/09/21 07:46:20;;;;;;;5.78;3.15;;;12.60;93.80;;;;;;5081394;28;20123;-84
2022/09/21 07:48:46;;;;;;;5.13;2.95;;;12.60;93.80;;;;;;5057595;28;20048;-83
2022/09/21 07:51:14;;;;;;;3.75;2.80;;;12.70;93.80;;;;;;5022638;28;20021;-84
2022/09/21 07:53:45;;;;;;;4.35;2.88;;;12.80;93.90;;;;;;5021622;28;20033;-83
2022/09/21 07:56:17;;;;;;;3.58;2.75;;;12.80;93.90;;;;;;5021218;28;20079;-83
2022/09/21 08:01:40;;;;;;;4.50;2.72;;;13.00;93.80;;;;;;5026469;28;20039;-84
2022/09/21 08:04:16;;;;;;;5.18;2.88;;;13.10;93.70;;;;;;5036922;28;20032;-82
2022/09/21 08:06:46;;;;;;;4.13;2.80;;;13.20;93.70;;;;;;5037675;28;20120;-83
2022/09/21 08:09:12;;;;;;;3.70;2.67;;;13.20;93.70;;;;;;5046393;28;20045;-83
2022/09/21 08:11:51;;;;;;;4.47;2.90;;;13.30;93.60;;;;;;5004214;28;20040;-84
2022/09/21 08:14:21;;;;;;;4.68;2.80;;;13.40;93.60;;;;;;5021889;28;20055;-82
2022/09/21 08:16:47;;;;;;;6.30;3.30;;;13.50;93.60;;;;;;5020014;28;20033;-81
2022/09/21 08:19:14;;;;;;;4.28;2.97;;;13.50;93.60;;;;;;5020714;28;20033;-82
2022/09/21 08:21:42;;;;;;;4.75;2.83;;;13.60;93.60;;;;;;5033711;28;20392;-82
2022/09/21 08:24:10;;;;;;;3.22;2.53;;;13.60;93.80;;;;;;5020781;28;20037;-82
2022/09/21 08:26:36;;;;;;;4.90;2.85;;;13.60;93.70;;;;;;5021086;28;20025;-83
2022/09/21 08:29:02;;;;;;;4.75;2.47;;;13.70;93.80;;;;;;5020448;28;20118;-83
2022/09/21 08:31:29;;;;;;;4.68;2.17;;;13.80;93.70;;;;;;5029722;28;20269;-83
2022/09/21 08:33:59;;;;;;;4.28;2.70;;;13.90;93.70;;;;;;4985053;28;20112;-84
2022/09/21 08:36:31;;;;;;;5.32;2.88;;;14.00;93.60;;;;;;5017457;28;20041;-83
2022/09/21 08:38:57;;;;;;;5.18;2.70;;;14.10;93.50;;;;;;5001387;28;20033;-83
2022/09/21 08:41:31;;;;;;;4.57;2.50;;;14.10;93.50;;;;;;5016731;28;20025;-84
2022/09/21 08:44:26;;;;;;;4.95;2.28;;;14.20;93.50;;;;;;5018368;28;20033;-83
2022/09/21 08:47:18;;;;;;;6.13;2.15;;;14.30;93.40;;;;;;5015979;28;20052;-84
2022/09/21 08:49:54;;;;;;;3.78;2.08;;;14.40;93.40;;;;;;5002410;28;20131;-82
2022/09/21 08:52:23;;;;;;;5.40;1.92;;;14.50;93.30;;;;;;5034639;28;20028;-84
2022/09/21 08:55:01;;;;;;;3.83;1.83;;;14.50;93.30;;;;;;5033745;28;20033;-82
2022/09/21 08:57:32;;;;;;;4.97;1.80;;;14.60;93.30;;;;;;5016268;28;20032;-84
2022/09/21 09:00:01;;;;;;;4.10;1.60;;;14.60;93.20;;;;;;5016156;28;20158;-83
2022/09/21 09:03:07;;;;;;;4.18;2.00;;;14.70;93.10;;;;;;5017739;28;20041;-84
2022/09/21 09:05:49;;;;;;;5.57;2.00;;;14.70;93.00;;;;;;5035378;28;20022;-83
2022/09/21 09:08:38;;;;;;;6.22;1.75;;;14.80;93.00;;;;;;5016890;28;20571;-83
2022/09/21 09:11:22;;;;;;;4.55;1.80;;;14.80;92.90;;;;;;5033942;28;20136;-83
2022/09/21 09:14:31;;;;;;;4.63;1.80;;;14.90;92.90;;;;;;5036193;28;20078;-82
2022/09/21 09:17:42;;;;;;;2.38;1.70;;;15.00;92.90;;;;;;4992032;28;20461;-82
2022/09/21 09:20:29;;;;;;;3.35;1.95;;;15.00;92.80;;;;;;5058158;28;20232;-82
2022/09/21 09:23:49;;;;;;;2.63;1.30;;;15.10;92.70;;;;;;5060569;28;20071;-83
2022/09/21 09:26:29;;;;;;;3.85;1.42;;;15.20;92.70;;;;;;4973314;29;20028;-83
2022/09/21 09:29:23;;;;;;;1.75;1.20;;;15.20;92.70;;;;;;4959131;29;20047;-82
2022/09/21 09:31:53;;;;;;;;;;;15.30;92.80;;;;;;5036849;28;20408;-85
2022/09/21 09:34:41;;;;;;;4.15;1.35;;;15.40;92.70;;;;;;5017349;28;19909;-82
2022/09/21 09:37:48;;;;;;;4.95;1.60;;;15.40;92.20;;;;;;5016798;28;20025;-83
2022/09/21 09:40:16;;;;;;;3.70;1.40;;;15.30;91.70;;;;;;5033811;28;20436;-83
2022/09/21 09:43:02;;;;;;;4.20;1.25;;;15.40;91.70;;;;;;4983877;28;20125;-83
2022/09/21 09:46:06;;;;;;;4.72;1.15;;;15.40;91.60;;;;;;5044342;28;20091;-84
2022/09/21 09:48:52;;;;;;;6.30;1.52;;;15.40;91.30;;;;;;5036130;28;20125;-83
2022/09/21 09:51:25;;;;;;;;;;;15.50;91.40;;;;;;5072381;28;20040;-82
2022/09/21 09:53:58;;;;;;;4.40;1.25;;;15.60;91.50;;;;;;5056046;28;19999;-83
2022/09/21 09:56:26;;;;;;;5.03;1.10;;;15.70;91.50;;;;;;5039867;28;20075;-82
2022/09/21 09:59:17;;;;;;;4.22;1.15;;;15.70;91.20;;;;;;5054932;28;20554;-83
2022/09/21 10:01:58;;;;;;;2.67;0.90;;;15.70;91.30;;;;;;5057765;28;20037;-83
2022/09/21 10:04:29;;;;;;;2.53;0.77;;;15.80;91.30;;;;;;5042106;28;20021;-82
2022/09/21 10:07:03;;;;;;;5.07;1.00;;;15.90;91.20;;;;;;5039872;28;20086;-84
2022/09/21 10:09:30;;;;;;;3.55;1.00;;;15.90;90.60;;;;;;5056923;28;20056;-83
2022/09/21 10:12:38;;;;;;;1.83;0.85;;;16.00;90.60;;;;;;5056463;28;20476;-84
2022/09/21 10:15:14;;;;;;;2.67;1.00;;;16.00;90.50;;;;;;5072040;28;20032;-83
2022/09/21 10:18:04;;;;;;;1.60;0.80;;;16.10;90.70;;;;;;5056391;28;20036;-84
2022/09/21 10:20:33;;;;;;;1.95;0.70;;;16.20;90.50;;;;;;5036906;28;20391;-84
2022/09/21 10:23:11;;;;;;;3.40;0.90;;;16.30;90.20;;;;;;5039776;28;20043;-83
2022/09/21 10:26:03;;;;;;;2.53;0.60;;;16.30;89.10;;;;;;5074374;28;20051;-83
2022/09/21 10:28:41;;;;;;;1.77;0.80;;;16.30;88.60;;;;;;5056700;28;20032;-84
2022/09/21 10:31:11;;;;;;;2.70;0.70;;;16.30;89.00;;;;;;5040162;28;20392;-84
2022/09/21 10:34:15;;;;;;;4.18;0.95;;;16.40;89.20;;;;;;5043997;28;20067;-83
2022/09/21 10:36:53;;;;;;;4.65;1.20;;;16.50;88.90;;;;;;4989991;28;20132;-83
2022/09/21 10:39:44;;;;;;;3.85;0.95;;;16.50;88.40;;;;;;5035807;28;20127;-84
2022/09/21 10:42:18;;;;;;;2.88;0.95;;;16.50;88.10;;;;;;5035621;28;20048;-84
2022/09/21 10:45:06;;;;;;;2.03;0.60;;;16.60;88.40;;;;;;5037292;28;20021;-84
2022/09/21 10:47:39;;;;;;;1.75;0.80;;;16.70;88.30;;;;;;5038940;28;20051;-85
2022/09/21 10:50:59;;;;;;;1.63;0.50;;;16.80;88.00;;;;;;5047393;28;20385;-84
2022/09/21 10:53:47;;;;;;;2.45;0.65;;;16.90;88.00;;;;;;5019988;28;20029;-86
2022/09/21 10:56:52;;;;;;;2.72;0.70;;;16.90;88.20;;;;;;5023957;28;20052;-86
2022/09/21 10:59:33;;;;;;;3.28;0.70;;;17.00;88.30;;;;;;5034112;28;20448;-87
2022/09/21 11:02:34;;;;;;;1.35;0.65;;;17.00;88.10;;;;;;5021318;28;20038;-84
2022/09/21 11:05:22;;;;;;;1.58;0.57;;;17.10;88.70;;;;;;5019227;28;20148;-85
2022/09/21 11:08:28;;;;;;;2.25;0.47;;;17.10;88.00;;;;;;5030741;28;20068;-83
2022/09/21 11:11:49;;;;;;;1.67;0.65;;;17.10;88.00;;;;;;5065412;28;20033;-83
2022/09/21 11:15:00;;;;;;;1.00;0.50;;;17.20;87.80;;;;;;5061981;28;20029;-82
2022/09/21 11:18:05;;;;;;;2.08;0.80;;;17.30;87.80;;;;;;5008336;28;20057;-83
2022/09/21 11:20:59;;;;;;;3.65;1.73;;;17.30;87.70;;;;;;5058169;28;20039;-83
2022/09/21 11:24:12;;;;;;;5.10;2.40;;;17.40;87.60;;;;;;5037736;28;20025;-81
2022/09/21 11:27:04;;;;;;;4.25;1.70;;;17.40;86.40;;;;;;5040288;28;20079;-87
2022/09/21 11:30:06;;;;;;;2.28;1.23;;;17.40;86.90;;;;;;5038512;28;20037;-86
2022/09/21 11:32:58;;;;;;;2.28;0.93;;;17.50;86.70;;;;;;5038465;28;20483;-82
2022/09/21 11:36:08;;;;;;;3.88;0.70;;;17.50;86.10;;;;;;5018200;28;20088;-82
2022/09/21 11:39:03;;;;;;;3.00;0.82;;;17.60;85.20;;;;;;5019087;28;20037;-85
2022/09/21 11:42:13;;;;;;;1.52;0.55;;;17.60;85.00;;;;;;5035585;28;20167;-84
2022/09/21 11:45:09;;;;;;;2.88;0.73;;;17.70;83.80;;;;;;5023276;28;20481;-83
2022/09/21 11:48:22;;;;;;;1.77;0.50;;;17.70;82.60;;;;;;5056652;28;20477;-83
2022/09/21 11:51:37;;;;;;;1.65;0.90;;;17.80;82.20;;;;;;5057833;28;20049;-82
2022/09/21 11:54:33;;;;;;;2.42;0.80;;;17.90;82.40;;;;;;5028863;28;20044;-85
2022/09/21 11:57:15;;;;;;;1.23;0.52;;;18.00;81.90;;;;;;5036727;28;20026;-82
2022/09/21 12:00:08;;;;;;;1.63;0.50;;;18.00;82.10;;;;;;5034946;28;20459;-83
2022/09/21 12:03:22;;;;;;;1.92;0.70;;;18.10;81.70;;;;;;5032462;28;20052;-82
2022/09/21 12:06:27;;;;;;;;;;;;;;;;;;;;;
2022/09/21 12:09:31;;;;;;;2.25;0.70;;;18.20;80.70;;;;;;5016467;28;20037;-82
2022/09/21 12:12:34;;;;;;;1.00;0.45;;;18.20;80.40;;;;;;5037633;28;20112;-84
2022/09/21 12:15:41;;;;;;;1.67;0.40;;;18.30;79.90;;;;;;5055525;28;20104;-84
2022/09/21 12:18:24;;;;;;;1.73;0.60;;;18.40;78.50;;;;;;5035766;28;20037;-82
2022/09/21 12:21:23;;;;;;;1.75;0.73;;;18.40;77.60;;;;;;5022286;28;20033;-83
2022/09/21 12:24:27;;;;;;;1.55;0.60;;;18.40;78.00;;;;;;5037572;28;20037;-84
2022/09/21 12:26:57;;;;;;;3.55;1.00;;;18.50;77.60;;;;;;5021303;28;20401;-83
2022/09/21 12:29:46;;;;;;;2.25;0.70;;;18.50;78.30;;;;;;5028875;28;20060;-83
2022/09/21 12:32:55;;;;;;;2.25;0.80;;;18.60;78.40;;;;;;5002386;28;20065;-84
2022/09/21 12:35:45;;;;;;;3.05;0.60;;;18.60;78.40;;;;;;5035051;28;20109;-83
2022/09/21 12:38:44;;;;;;;0.97;0.30;;;18.70;78.00;;;;;;5018189;28;20043;-83
2022/09/21 12:41:38;;;;;;;1.38;0.50;;;18.70;77.10;;;;;;5019630;28;20302;-83
2022/09/21 12:44:28;;;;;;;2.55;0.55;;;18.80;77.30;;;;;;5018534;28;20025;-84
2022/09/21 12:47:18;;;;;;;1.10;0.57;;;18.90;77.80;;;;;;5036310;28;20022;-83
2022/09/21 12:49:49;;;;;;;2.38;1.10;;;18.90;77.90;;;;;;5019435;28;20055;-86
2022/09/21 12:52:26;;;;;;;2.35;0.57;;;19.00;77.20;;;;;;5019189;28;20033;-83
2022/09/21 12:55:23;;;;;;;2.20;0.68;;;19.00;76.70;;;;;;5026612;28;20021;-82
2022/09/21 12:58:15;;;;;;;1.90;0.60;;;19.00;76.80;;;;;;5038805;28;20036;-82
2022/09/21 13:01:37;;;;;;;2.95;0.55;;;19.10;76.90;;;;;;5059719;28;20043;-82
2022/09/21 13:04:30;;;;;;;1.15;0.47;;;19.10;76.80;;;;;;5070624;28;20025;-82
2022/09/21 13:07:50;;;;;;;2.47;0.73;;;19.20;76.70;;;;;;5058291;28;20037;-82
2022/09/21 13:10:38;;;;;;;1.20;0.47;;;19.10;76.40;;;;;;5022252;28;20052;-84
2022/09/21 13:13:07;;;;;;;2.03;0.40;;;19.10;73.10;;;;;;5041584;28;20021;-83
2022/09/21 13:15:58;;;;;;;2.15;0.63;;;19.20;73.80;;;;;;5020791;28;20045;-83
2022/09/21 13:18:27;;;;;;;;;;;19.20;74.10;;;;;;5035477;28;20124;-83
2022/09/21 13:21:04;;;;;;;1.50;0.50;;;19.20;74.20;;;;;;5033975;28;20418;-83
2022/09/21 13:23:40;;;;;;;1.55;0.50;;;19.20;74.20;;;;;;5016486;28;20029;-83
2022/09/21 13:26:11;;;;;;;2.35;0.40;;;19.30;74.30;;;;;;5015246;28;20129;-83
2022/09/21 13:29:02;;;;;;;1.33;0.32;;;19.30;74.50;;;;;;5016431;28;20576;-83
2022/09/21 13:31:58;;;;;;;1.55;0.75;;;19.30;74.30;;;;;;5022314;28;20545;-83
2022/09/21 13:34:33;;;;;;;2.28;0.63;;;19.40;74.70;;;;;;5033380;28;20045;-84
2022/09/21 13:37:17;;;;;;;2.33;0.50;;;19.40;73.90;;;;;;5016327;28;20112;-81
2022/09/21 13:40:11;;;;;;;2.50;0.75;;;19.50;74.10;;;;;;5034349;28;20127;-84
2022/09/21 13:42:52;;;;;;;1.40;0.70;;;19.50;74.30;;;;;;5016265;28;20025;-83
2022/09/21 13:45:22;;;;;;;2.13;0.68;;;19.40;74.20;;;;;;5015306;28;20025;-82
2022/09/21 13:47:53;;;;;;;1.58;0.70;;;19.50;73.80;;;;;;5032933;28;20129;-83
2022/09/21 13:50:27;;;;;;;1.83;0.57;;;19.40;73.10;;;;;;5035867;28;20409;-81